Time;durP1;ratioP1;P1;durP2;ratioP2;P2;SDS_P1;SDS_P2;PMS_P1;PMS_P2;Temp;Humidity;BMP_temperature;BMP_pressure;BME280_temperature;BME280_humidity;BME280_pressure;Samples;Min_cycle;Max_cycle;Signal;HPM_P1;HPM_P2
2023/07/06 00:01:26;;;;;;;4.30;2.70;;;;;;;15.04;98.22;100565.50;4950054;29;20230;-66
2023/07/06 00:03:56;;;;;;;4.60;2.40;;;;;;;15.16;97.56;100569.91;4950489;29;20571;-65
2023/07/06 00:06:23;;;;;;;3.90;2.40;;;;;;;15.13;97.56;100567.25;4951518;29;20206;-66
2023/07/06 00:08:52;;;;;;;3.50;2.43;;;;;;;15.10;97.93;100571.72;4951524;29;20195;-66
2023/07/06 00:11:20;;;;;;;3.97;2.40;;;;;;;14.97;98.58;100561.09;4948403;28;20209;-66
2023/07/06 00:13:47;;;;;;;3.60;2.60;;;;;;;14.93;99.50;100569.09;4951131;29;20255;-66
2023/07/06 00:16:14;;;;;;;3.57;2.43;;;;;;;14.82;99.79;100566.44;4951453;29;20280;-66
2023/07/06 00:18:41;;;;;;;3.40;2.33;;;;;;;14.75;100.00;100572.66;4949640;29;20209;-66
2023/07/06 00:21:08;;;;;;;4.67;2.50;;;;;;;14.62;100.00;100573.56;4946633;29;20206;-66
2023/07/06 00:23:34;;;;;;;5.93;3.00;;;;;;;14.56;100.00;100577.09;4951336;29;20222;-66
2023/07/06 00:26:01;;;;;;;3.93;2.70;;;;;;;14.45;100.00;100580.66;4951367;29;20202;-66
2023/07/06 00:28:28;;;;;;;3.53;2.73;;;;;;;14.31;100.00;100581.50;4947685;28;20241;-66
2023/07/06 00:31:06;;;;;;;5.67;2.90;;;;;;;14.21;100.00;100590.34;4949306;29;20202;-66
2023/07/06 00:33:34;;;;;;;5.63;2.73;;;;;;;14.08;100.00;100591.22;4947778;29;20312;-66
2023/07/06 00:36:00;;;;;;;5.13;2.67;;;;;;;13.99;100.00;100588.53;4950100;29;20222;-67
2023/07/06 00:38:26;;;;;;;3.33;2.57;;;;;;;13.84;100.00;100585.81;4949509;29;20402;-66
2023/07/06 00:40:56;;;;;;;7.07;2.83;;;;;;;13.69;100.00;100584.91;4951052;29;20211;-66
2023/07/06 00:43:27;;;;;;;4.43;2.80;;;;;;;13.59;100.00;100584.81;4950238;29;20208;-67
2023/07/06 00:46:08;;;;;;;4.17;2.53;;;;;;;13.48;100.00;100579.47;4946928;28;20245;-66
2023/07/06 00:48:38;;;;;;;5.00;2.77;;;;;;;13.49;100.00;100574.16;4944645;29;20198;-67
2023/07/06 00:51:13;;;;;;;5.03;2.73;;;;;;;13.57;100.00;100566.19;4950774;29;20212;-67
2023/07/06 00:53:42;;;;;;;3.83;2.90;;;;;;;13.54;100.00;100563.53;4948801;29;20240;-66
2023/07/06 00:56:13;;;;;;;4.10;2.93;;;;;;;13.55;100.00;100567.97;4949369;28;20231;-67
2023/07/06 00:58:43;;;;;;;4.47;2.67;;;;;;;13.43;100.00;100565.25;4950452;29;20221;-67
2023/07/06 01:01:12;;;;;;;7.23;3.60;;;;;;;13.38;100.00;100561.69;4949291;29;20208;-65
2023/07/06 01:03:48;;;;;;;6.10;3.30;;;;;;;13.40;100.00;100565.25;4948025;28;20218;-68
2023/07/06 01:06:25;;;;;;;4.37;2.83;;;;;;;13.28;100.00;100563.44;4948758;28;20293;-67
2023/07/06 01:08:53;;;;;;;4.80;3.03;;;;;;;13.29;100.00;100564.31;4945909;29;20697;-68
2023/07/06 01:11:20;;;;;;;6.83;3.47;;;;;;;13.26;100.00;100574.94;4950167;29;20577;-68
2023/07/06 01:13:51;;;;;;;5.03;3.00;;;;;;;13.21;100.00;100574.00;4950821;28;20344;-67
2023/07/06 01:16:38;;;;;;;6.57;3.17;;;;;;;13.10;100.00;100566.81;4949796;29;20222;-67
2023/07/06 01:19:30;;;;;;;3.77;2.80;;;;;;;13.33;100.00;100567.00;4949723;28;20232;-67
2023/07/06 01:22:09;;;;;;;4.87;3.37;;;;;;;13.11;100.00;100567.72;4948383;28;20205;-69
2023/07/06 01:24:50;;;;;;;3.17;2.87;;;;;;;13.07;100.00;100571.22;4947285;29;20304;-68
2023/07/06 01:27:48;;;;;;;4.63;3.23;;;;;;;13.08;100.00;100573.00;4947783;29;20668;-68
2023/07/06 01:30:27;;;;;;;3.93;3.00;;;;;;;12.99;100.00;100564.97;4948557;29;20209;-69
2023/07/06 01:33:02;;;;;;;6.83;3.20;;;;;;;12.92;100.00;100569.38;4949958;29;20665;-68
2023/07/06 01:35:43;;;;;;;4.40;3.03;;;;;;;12.79;100.00;100578.13;4949003;29;20233;-69
2023/07/06 01:38:11;;;;;;;4.63;3.27;;;;;;;12.79;100.00;100576.34;4947372;28;20212;-67
2023/07/06 01:40:38;;;;;;;4.13;3.20;;;;;;;12.70;100.00;100578.94;4950253;29;20229;-68
2023/07/06 01:43:07;;;;;;;5.37;3.00;;;;;;;12.80;100.00;100580.78;4950322;29;20216;-68
2023/07/06 01:45:35;;;;;;;5.17;2.93;;;;;;;12.74;100.00;100583.41;4947824;29;20578;-68
2023/07/06 01:48:04;;;;;;;5.57;3.40;;;;;;;12.73;100.00;100584.28;4949488;29;20248;-67
2023/07/06 01:50:58;;;;;;;6.17;3.20;;;;;;;12.77;100.00;100579.88;4949183;29;20288;-69
2023/07/06 01:53:54;;;;;;;7.77;3.27;;;;;;;12.73;100.00;100586.94;4947333;29;20220;-68
2023/07/06 01:56:38;;;;;;;4.77;3.10;;;;;;;12.78;100.00;100593.19;4944325;29;20469;-70
2023/07/06 01:59:10;;;;;;;4.70;3.17;;;;;;;12.93;100.00;100581.78;4950357;29;20718;-70
2023/07/06 02:01:42;;;;;;;4.50;3.20;;;;;;;12.91;100.00;100577.34;4929111;29;20208;-69
2023/07/06 02:04:10;;;;;;;7.03;2.90;;;;;;;12.88;100.00;100593.28;4948359;29;20231;-70
2023/07/06 02:06:37;;;;;;;4.37;2.83;;;;;;;12.75;100.00;100593.16;4949577;29;20496;-70
2023/07/06 02:09:05;;;;;;;7.17;3.00;;;;;;;12.61;100.00;100589.50;4949652;29;20214;-71
2023/07/06 02:11:33;;;;;;;6.93;3.37;;;;;;;12.54;100.00;100593.88;4947060;28;20246;-71
2023/07/06 02:13:59;;;;;;;4.93;3.37;;;;;;;12.40;100.00;100590.19;4949112;29;20243;-69
2023/07/06 02:16:26;;;;;;;6.40;3.27;;;;;;;12.35;100.00;100596.34;4931433;29;20315;-70
2023/07/06 02:18:55;;;;;;;5.50;3.00;;;;;;;12.21;100.00;100599.78;4950827;28;20276;-69
2023/07/06 02:21:22;;;;;;;3.53;2.87;;;;;;;12.12;100.00;100596.13;4952290;29;20199;-70
2023/07/06 02:23:48;;;;;;;4.47;3.07;;;;;;;12.02;100.00;100596.91;4953461;29;20308;-68
2023/07/06 02:26:15;;;;;;;5.07;3.23;;;;;;;11.93;100.00;100606.53;4952980;29;20202;-70
2023/07/06 02:28:42;;;;;;;9.20;3.30;;;;;;;11.90;100.00;100606.50;4951551;28;20668;-72
2023/07/06 02:31:09;;;;;;;4.27;2.90;;;;;;;11.89;100.00;100604.72;4952020;29;20216;-71
2023/07/06 02:33:35;;;;;;;6.20;3.60;;;;;;;11.85;100.00;100607.31;4952432;29;20216;-72
2023/07/06 02:36:02;;;;;;;5.53;4.07;;;;;;;11.84;100.00;100611.75;4953066;29;20309;-71
2023/07/06 02:38:31;;;;;;;3.87;3.20;;;;;;;11.81;100.00;100605.50;4950781;29;20648;-75
2023/07/06 02:40:57;;;;;;;7.53;3.77;;;;;;;11.80;100.00;100603.72;4952995;29;20199;-74
2023/07/06 02:43:27;;;;;;;8.60;3.73;;;;;;;11.83;100.00;100603.75;4952191;29;20240;-74
2023/07/06 02:45:53;;;;;;;5.97;3.37;;;;;;;11.84;100.00;100610.84;4952081;28;20231;-74
2023/07/06 02:48:20;;;;;;;7.97;3.60;;;;;;;11.97;100.00;100606.56;4951240;29;20204;-77
2023/07/06 02:50:50;;;;;;;4.97;3.47;;;;;;;11.96;100.00;100607.44;4952899;29;20216;-74
2023/07/06 02:53:18;;;;;;;5.97;3.57;;;;;;;11.87;100.00;100605.59;4952228;29;20204;-77
2023/07/06 02:55:46;;;;;;;6.93;3.90;;;;;;;11.80;100.00;100609.03;4950933;29;20239;-76
2023/07/06 02:58:12;;;;;;;5.13;3.60;;;;;;;11.87;100.00;100609.13;4948865;29;20294;-74
2023/07/06 03:00:39;;;;;;;6.57;3.57;;;;;;;11.97;100.00;100612.75;4947007;29;20888;-77
2023/07/06 03:03:07;;;;;;;5.00;3.27;;;;;;;11.93;100.00;100611.84;4951819;29;20230;-77
2023/07/06 03:05:35;;;;;;;4.63;3.60;;;;;;;12.02;100.00;100608.44;4950872;29;20221;-76
2023/07/06 03:08:05;;;;;;;5.63;3.70;;;;;;;11.99;100.00;100612.78;4950874;29;20196;-76
2023/07/06 03:10:32;;;;;;;5.37;3.27;;;;;;;11.84;100.00;100610.84;4951993;29;20198;-75
2023/07/06 03:12:59;;;;;;;7.33;3.10;;;;;;;11.75;100.00;100616.03;4952498;29;20737;-75
2023/07/06 03:15:26;;;;;;;6.37;3.67;;;;;;;11.68;100.00;100615.06;4951288;29;20316;-76
2023/07/06 03:17:52;;;;;;;6.03;3.90;;;;;;;11.61;100.00;100611.44;4950097;28;20582;-75
2023/07/06 03:20:20;;;;;;;4.63;3.53;;;;;;;11.54;100.00;100612.22;4952281;29;20225;-75
2023/07/06 03:22:51;;;;;;;6.90;3.40;;;;;;;11.50;100.00;100613.03;4951434;29;20222;-74
2023/07/06 03:25:20;;;;;;;6.07;3.70;;;;;;;11.49;100.00;100613.91;4950534;29;20236;-76
2023/07/06 03:27:47;;;;;;;5.47;3.57;;;;;;;11.42;100.00;100612.06;4952237;29;20202;-76
2023/07/06 03:30:16;;;;;;;6.77;3.83;;;;;;;11.41;100.00;100610.28;4950104;28;20238;-75
2023/07/06 03:32:42;;;;;;;5.70;3.63;;;;;;;11.38;100.00;100620.84;4951021;29;20200;-77
2023/07/06 03:35:10;;;;;;;6.03;3.50;;;;;;;11.37;100.00;100612.88;4949204;28;20223;-76
2023/07/06 03:37:38;;;;;;;6.43;3.80;;;;;;;11.39;100.00;100619.97;4951980;29;20218;-76
2023/07/06 03:40:10;;;;;;;5.30;4.03;;;;;;;11.37;100.00;100618.19;4950529;29;20199;-75
2023/07/06 03:42:39;;;;;;;7.27;3.37;;;;;;;11.36;100.00;100627.00;4948310;29;20793;-76
2023/07/06 03:45:08;;;;;;;6.03;3.87;;;;;;;11.39;100.00;100621.75;4951318;29;20579;-77
2023/07/06 03:47:35;;;;;;;6.03;3.63;;;;;;;11.41;100.00;100626.19;4952068;29;20194;-76
2023/07/06 03:50:01;;;;;;;6.70;3.93;;;;;;;11.43;100.00;100629.75;4949377;29;20217;-77
2023/07/06 03:52:28;;;;;;;8.70;3.67;;;;;;;11.48;100.00;100620.09;4948398;29;20202;-76
2023/07/06 03:54:55;;;;;;;9.00;3.60;;;;;;;11.54;100.00;100635.19;4952065;29;20255;-77
2023/07/06 03:57:22;;;;;;;6.27;3.60;;;;;;;11.57;100.00;100625.50;4950673;29;20244;-76
2023/07/06 03:59:49;;;;;;;4.77;4.00;;;;;;;11.63;100.00;100621.19;4951221;29;20292;-77
2023/07/06 04:02:15;;;;;;;9.37;3.93;;;;;;;11.66;100.00;100631.84;4948187;29;20209;-76
2023/07/06 04:04:42;;;;;;;9.20;4.30;;;;;;;11.73;100.00;100629.28;4951031;29;20220;-77
2023/07/06 04:07:10;;;;;;;5.73;3.40;;;;;;;11.86;100.00;100630.34;4950810;29;20209;-77
2023/07/06 04:09:38;;;;;;;7.20;3.83;;;;;;;11.85;100.00;100634.75;4948612;29;20197;-75
2023/07/06 04:12:07;;;;;;;6.30;3.33;;;;;;;11.99;100.00;100634.00;4951097;29;20741;-77
2023/07/06 04:14:34;;;;;;;7.53;3.90;;;;;;;12.14;100.00;100637.75;4948969;29;20220;-77
2023/07/06 04:17:01;;;;;;;6.60;3.80;;;;;;;12.33;100.00;100645.91;4948079;29;20310;-75
2023/07/06 04:19:28;;;;;;;4.37;3.27;;;;;;;12.40;100.00;100637.13;4950810;29;20197;-77
2023/07/06 04:21:56;;;;;;;8.20;3.47;;;;;;;12.46;100.00;100651.38;4949784;29;20474;-77
2023/07/06 04:24:25;;;;;;;5.00;3.63;;;;;;;12.50;100.00;100647.88;4950022;29;20235;-77
2023/07/06 04:26:54;;;;;;;5.97;3.73;;;;;;;12.59;100.00;100647.06;4944522;28;20198;-77
2023/07/06 04:29:22;;;;;;;8.17;3.70;;;;;;;12.69;100.00;100648.03;4950306;29;20211;-76
2023/07/06 04:31:48;;;;;;;8.93;3.60;;;;;;;12.73;100.00;100641.84;4949388;29;20721;-77
2023/07/06 04:34:15;;;;;;;7.60;3.77;;;;;;;12.86;100.00;100652.63;4948769;29;20230;-75
2023/07/06 04:36:41;;;;;;;5.37;3.53;;;;;;;12.92;100.00;100651.78;4949105;29;20314;-76
2023/07/06 04:39:08;;;;;;;7.50;3.70;;;;;;;13.00;100.00;100658.03;4948605;29;20296;-76
2023/07/06 04:41:35;;;;;;;6.23;3.87;;;;;;;13.07;100.00;100661.63;4949309;28;21410;-76
2023/07/06 04:44:01;;;;;;;9.93;4.20;;;;;;;13.12;100.00;100652.81;4949133;29;21527;-76
2023/07/06 04:46:28;;;;;;;6.63;3.60;;;;;;;13.10;100.00;100653.69;4949286;29;20204;-76
2023/07/06 04:48:54;;;;;;;5.33;3.63;;;;;;;13.15;100.00;100655.50;4950116;29;20197;-77
2023/07/06 04:51:21;;;;;;;6.47;4.33;;;;;;;13.24;100.00;100653.84;4965439;28;20227;-76
2023/07/06 04:53:49;;;;;;;6.50;3.90;;;;;;;13.25;100.00;100656.50;4949119;29;20235;-76
2023/07/06 04:56:16;;;;;;;5.17;3.80;;;;;;;13.34;100.00;100658.31;4950848;29;20205;-75
2023/07/06 04:58:45;;;;;;;7.93;3.97;;;;;;;13.45;100.00;100653.94;4949758;29;20279;-70
2023/07/06 05:01:11;;;;;;;6.87;3.87;;;;;;;13.48;100.00;100661.94;4949650;29;20208;-70
2023/07/06 05:03:38;;;;;;;7.43;3.60;;;;;;;13.56;100.00;100659.31;4948770;29;20227;-72
2023/07/06 05:06:12;;;;;;;4.20;3.33;;;;;;;13.65;100.00;100662.06;4950368;29;20205;-74
2023/07/06 05:08:45;;;;;;;8.73;3.90;;;;;;;13.64;100.00;100660.28;4938451;28;20210;-73
2023/07/06 05:11:11;;;;;;;5.67;3.50;;;;;;;13.77;100.00;100664.78;4947744;29;20200;-71
2023/07/06 05:13:37;;;;;;;6.30;3.83;;;;;;;13.78;100.00;100667.44;4947612;28;20229;-69
2023/07/06 05:16:04;;;;;;;5.57;3.13;;;;;;;13.82;100.00;100667.47;4947868;29;20207;-71
2023/07/06 05:18:31;;;;;;;5.83;3.50;;;;;;;13.84;100.00;100668.34;4944304;28;20316;-70
2023/07/06 05:20:58;;;;;;;6.20;3.80;;;;;;;13.90;100.00;100663.03;4947953;29;20221;-71
2023/07/06 05:23:28;;;;;;;5.60;3.23;;;;;;;13.95;100.00;100664.84;4948391;28;20208;-68
2023/07/06 05:26:00;;;;;;;7.30;3.60;;;;;;;14.02;100.00;100674.66;4946245;29;20659;-69
2023/07/06 05:28:29;;;;;;;7.83;3.73;;;;;;;14.06;100.00;100671.13;4947869;29;20668;-69
2023/07/06 05:30:56;;;;;;;5.97;3.47;;;;;;;14.20;100.00;100676.50;4950597;29;20744;-68
2023/07/06 05:33:22;;;;;;;6.27;3.53;;;;;;;14.36;100.00;100667.63;4950890;29;20293;-68
2023/07/06 05:35:49;;;;;;;8.07;3.40;;;;;;;14.51;100.00;100672.16;4951463;29;20553;-67
2023/07/06 05:38:18;;;;;;;9.47;3.93;;;;;;;14.60;100.00;100674.84;4949225;29;20224;-68
2023/07/06 05:40:44;;;;;;;5.67;3.73;;;;;;;14.57;100.00;100661.50;4950798;29;20766;-69
2023/07/06 05:43:11;;;;;;;6.47;3.73;;;;;;;14.67;100.00;100670.41;4951308;29;20212;-68
2023/07/06 05:45:37;;;;;;;7.80;3.80;;;;;;;14.68;100.00;100674.84;4950700;29;20205;-68
2023/07/06 05:48:04;;;;;;;6.83;3.27;;;;;;;14.79;100.00;100681.06;4951383;29;20586;-69
2023/07/06 05:50:31;;;;;;;5.53;3.30;;;;;;;14.78;100.00;100679.28;4951429;29;20281;-68
2023/07/06 05:52:57;;;;;;;8.60;3.67;;;;;;;15.09;100.00;100684.66;4946717;28;20228;-68
2023/07/06 05:55:24;;;;;;;7.00;3.57;;;;;;;15.44;100.00;100674.81;4950059;29;20236;-68
2023/07/06 05:57:50;;;;;;;4.10;3.23;;;;;;;15.54;100.00;100681.91;4951672;29;20307;-68
2023/07/06 06:00:18;;;;;;;7.33;3.67;;;;;;;15.82;100.00;100687.22;4950614;29;20210;-70
2023/07/06 06:02:44;;;;;;;5.10;3.60;;;;;;;16.11;100.00;100688.03;4950935;29;20582;-67
2023/07/06 06:05:14;;;;;;;6.10;3.47;;;;;;;16.05;100.00;100690.72;4951306;29;20225;-68
2023/07/06 06:07:43;;;;;;;5.47;2.80;;;;;;;15.94;100.00;100693.41;4951943;29;20274;-69
2023/07/06 06:10:11;;;;;;;7.57;3.50;;;;;;;15.77;100.00;100691.69;4950818;29;20225;-68
2023/07/06 06:12:38;;;;;;;5.00;3.30;;;;;;;15.70;100.00;100696.19;4950952;29;20446;-67
2023/07/06 06:15:08;;;;;;;5.47;3.17;;;;;;;15.73;100.00;100698.84;4951501;29;20249;-68
2023/07/06 06:17:36;;;;;;;5.43;3.33;;;;;;;15.75;100.00;100699.72;4951423;29;20281;-69
2023/07/06 06:20:04;;;;;;;5.83;2.90;;;;;;;15.77;100.00;100705.94;4950827;29;20206;-68
2023/07/06 06:22:31;;;;;;;4.97;3.27;;;;;;;15.97;100.00;100708.53;4950834;29;20206;-68
2023/07/06 06:24:57;;;;;;;4.67;3.43;;;;;;;16.18;100.00;100699.56;4934310;29;20229;-68
2023/07/06 06:27:24;;;;;;;8.20;3.97;;;;;;;16.11;100.00;100705.84;4951296;29;20241;-68
2023/07/06 06:29:50;;;;;;;4.70;2.70;;;;;;;16.20;99.46;100712.03;4950785;29;20285;-67
2023/07/06 06:32:17;;;;;;;4.30;2.50;;;;;;;16.37;97.51;100705.69;4950626;29;20201;-67
2023/07/06 06:34:44;;;;;;;6.43;2.60;;;;;;;16.46;96.80;100709.22;4951089;29;20226;-69
2023/07/06 06:37:10;;;;;;;7.20;2.80;;;;;;;16.42;96.70;100717.28;4944814;29;20651;-68
2023/07/06 06:39:38;;;;;;;4.70;2.50;;;;;;;16.46;95.05;100711.91;4951505;29;20240;-67
2023/07/06 06:42:04;;;;;;;3.33;2.20;;;;;;;16.51;93.73;100717.22;4949693;29;20641;-68
2023/07/06 06:44:31;;;;;;;4.07;2.20;;;;;;;16.55;92.41;100716.31;4949929;29;20234;-69
2023/07/06 06:47:01;;;;;;;3.20;2.40;;;;;;;16.65;93.07;100714.47;4950163;29;20750;-68
2023/07/06 06:49:34;;;;;;;4.13;2.10;;;;;;;16.77;91.13;100717.97;4951291;29;20205;-69
2023/07/06 06:52:02;;;;;;;4.57;2.47;;;;;;;16.83;91.20;100723.31;4951007;29;20202;-67
2023/07/06 06:54:30;;;;;;;3.97;2.10;;;;;;;16.95;89.57;100727.66;4932894;29;20232;-67
2023/07/06 06:56:57;;;;;;;3.57;2.50;;;;;;;17.07;87.27;100729.34;4950058;29;20198;-67
2023/07/06 06:59:23;;;;;;;4.63;2.40;;;;;;;17.18;87.84;100728.38;4950995;29;20206;-67
2023/07/06 07:01:53;;;;;;;6.00;2.50;;;;;;;17.37;86.56;100717.50;4949920;29;20290;-67
2023/07/06 07:04:21;;;;;;;4.63;2.20;;;;;;;17.59;83.71;100721.75;4949666;28;20230;-67
2023/07/06 07:06:47;;;;;;;5.90;2.63;;;;;;;17.64;82.90;100714.59;4947257;29;20195;-67
2023/07/06 07:09:13;;;;;;;2.67;2.07;;;;;;;17.78;80.37;100718.03;4950371;29;20555;-68
2023/07/06 07:11:40;;;;;;;5.17;2.10;;;;;;;17.95;81.05;100712.47;4952231;29;20342;-67
2023/07/06 07:14:07;;;;;;;6.23;2.23;;;;;;;19.47;72.77;100701.31;4949051;29;20223;-67
2023/07/06 07:16:37;;;;;;;3.27;1.70;;;;;;;22.31;56.79;100705.41;4949935;28;20202;-67
2023/07/06 07:19:06;;;;;;;3.30;1.60;;;;;;;24.39;48.90;100705.56;4951028;29;20594;-67
2023/07/06 07:21:33;;;;;;;4.40;1.97;;;;;;;26.09;43.28;100703.00;4951592;29;20697;-67
2023/07/06 07:23:59;;;;;;;5.93;1.53;;;;;;;26.29;40.80;100701.19;4944816;28;20670;-65
2023/07/06 07:26:26;;;;;;;3.77;1.60;;;;;;;26.45;38.47;100705.00;4939661;28;20304;-65
2023/07/06 07:28:53;;;;;;;3.00;1.50;;;;;;;27.63;37.67;100705.53;4950838;29;20221;-65
2023/07/06 07:31:21;;;;;;;3.55;1.55;;;;;;;28.61;35.42;100710.16;4951340;29;20198;-65
2023/07/06 07:33:49;;;;;;;5.72;1.60;;;;;;;28.48;34.66;100709.09;4950099;29;20240;-65
2023/07/06 07:36:17;;;;;;;2.63;1.50;;;;;;;28.98;31.68;100713.56;4951456;29;20206;-64
2023/07/06 07:38:45;;;;;;;2.05;1.27;;;;;;;28.77;33.11;100720.19;4952114;29;20221;-64
2023/07/06 07:41:13;;;;;;;2.22;1.52;;;;;;;28.20;31.64;100712.41;4949609;29;20220;-65
2023/07/06 07:43:42;;;;;;;1.98;1.40;;;;;;;27.84;28.77;100707.09;4948090;29;20222;-65
2023/07/06 07:46:11;;;;;;;2.20;1.25;;;;;;;28.17;29.13;100711.69;4951716;29;20485;-65
2023/07/06 07:48:44;;;;;;;2.92;1.40;;;;;;;28.24;29.95;100714.03;4951106;29;20677;-65
2023/07/06 07:51:14;;;;;;;1.77;1.10;;;;;;;26.99;29.33;100712.34;4946910;29;20289;-64
2023/07/06 07:53:43;;;;;;;2.30;1.40;;;;;;;27.17;29.28;100708.69;4949757;29;20300;-65
2023/07/06 07:56:10;;;;;;;2.25;1.10;;;;;;;27.64;27.93;100719.06;4951972;29;20663;-65
2023/07/06 07:58:38;;;;;;;2.28;1.10;;;;;;;27.94;28.03;100715.66;4948535;29;20218;-65
2023/07/06 08:01:07;;;;;;;2.28;0.88;;;;;;;27.82;28.18;100716.31;4949769;29;20265;-65
2023/07/06 08:03:36;;;;;;;1.75;1.20;;;;;;;27.38;28.69;100720.34;4950200;29;20225;-67
2023/07/06 08:06:05;;;;;;;1.63;1.20;;;;;;;28.19;28.24;100715.22;4943195;28;20203;-67
2023/07/06 08:08:33;;;;;;;4.90;1.20;;;;;;;28.83;27.61;100720.75;4928627;29;20229;-65
2023/07/06 08:11:05;;;;;;;2.17;1.08;;;;;;;27.60;27.96;100717.38;4950260;28;20215;-65
2023/07/06 08:13:32;;;;;;;1.92;1.27;;;;;;;27.83;28.77;100715.34;4937695;29;20206;-65
2023/07/06 08:16:00;;;;;;;3.10;1.30;;;;;;;28.12;28.48;100711.06;4948465;28;20659;-66
2023/07/06 08:18:27;;;;;;;1.58;1.30;;;;;;;28.06;28.22;100709.56;4948430;29;20229;-65
2023/07/06 08:20:55;;;;;;;3.30;1.33;;;;;;;27.85;28.17;100710.69;4947202;28;20202;-64
2023/07/06 08:23:47;;;;;;;2.08;1.00;;;;;;;26.42;29.43;100716.00;4944575;29;20300;-66
2023/07/06 08:26:13;;;;;;;1.50;1.05;;;;;;;26.10;30.53;100714.72;4951113;28;20194;-65
2023/07/06 08:28:40;;;;;;;1.83;1.02;;;;;;;25.16;31.68;100716.97;4948962;29;20659;-65
2023/07/06 08:31:16;;;;;;;2.55;0.82;;;;;;;24.31;33.50;100715.81;4946631;28;20233;-65
2023/07/06 08:33:47;;;;;;;2.90;1.05;;;;;;;24.35;32.51;100712.06;4943633;29;20555;-65
2023/07/06 08:36:15;;;;;;;1.50;1.05;;;;;;;24.45;31.17;100715.31;4949186;28;20198;-66
2023/07/06 08:38:43;;;;;;;1.38;0.90;;;;;;;24.43;30.65;100711.78;4946994;29;20226;-65
2023/07/06 08:41:18;;;;;;;1.40;0.95;;;;;;;24.20;31.76;100715.31;4948339;28;20202;-65
2023/07/06 08:43:46;;;;;;;1.48;0.82;;;;;;;23.93;33.82;100707.28;4947698;29;20226;-67
2023/07/06 08:46:12;;;;;;;2.15;1.00;;;;;;;23.60;34.82;100714.75;4947653;28;20204;-66
2023/07/06 08:48:39;;;;;;;2.05;1.10;;;;;;;23.75;35.11;100713.34;4946245;29;20694;-66
2023/07/06 08:51:24;;;;;;;2.17;1.20;;;;;;;23.86;34.94;100723.78;4948410;28;20647;-66
2023/07/06 08:54:04;;;;;;;4.03;1.10;;;;;;;23.84;35.13;100714.84;4948466;29;20620;-67
2023/07/06 08:56:36;;;;;;;2.08;1.20;;;;;;;23.79;35.42;100719.53;4946327;28;20208;-66
2023/07/06 08:59:12;;;;;;;3.55;1.30;;;;;;;23.61;36.01;100724.66;4945609;29;20232;-66
2023/07/06 09:01:39;;;;;;;1.50;1.00;;;;;;;23.45;35.53;100720.69;4946634;28;20201;-66
2023/07/06 09:04:15;;;;;;;1.63;1.10;;;;;;;23.38;35.51;100725.41;4946515;29;20257;-66
2023/07/06 09:06:48;;;;;;;2.15;1.15;;;;;;;23.26;35.63;100723.13;4946969;28;20214;-65
2023/07/06 09:09:14;;;;;;;1.50;1.20;;;;;;;23.45;36.55;100710.75;4948049;29;20198;-66
2023/07/06 09:11:43;;;;;;;5.28;1.33;;;;;;;23.36;36.00;100712.91;4948218;28;20238;-66
2023/07/06 09:14:13;;;;;;;2.08;1.20;;;;;;;23.32;36.32;100720.22;4944865;29;20214;-67
2023/07/06 09:16:51;;;;;;;2.65;1.27;;;;;;;23.10;35.85;100719.16;4949679;28;20226;-65
2023/07/06 09:19:18;;;;;;;4.10;1.15;;;;;;;22.79;36.83;100716.50;4947116;29;20314;-66
2023/07/06 09:21:48;;;;;;;3.05;1.45;;;;;;;22.81;36.70;100720.09;4949106;28;20842;-66
2023/07/06 09:24:15;;;;;;;1.55;1.10;;;;;;;22.84;36.06;100711.91;4947017;29;20222;-66
2023/07/06 09:26:44;;;;;;;2.97;0.98;;;;;;;23.19;36.62;100708.03;4948020;28;20209;-66
2023/07/06 09:29:12;;;;;;;2.55;1.33;;;;;;;23.36;36.56;100713.78;4941258;28;20709;-67
2023/07/06 09:31:38;;;;;;;1.77;0.90;;;;;;;23.32;35.93;100719.34;4947183;28;20201;-67
2023/07/06 09:34:10;;;;;;;1.50;1.00;;;;;;;23.48;35.79;100706.16;4947319;29;20446;-66
2023/07/06 09:36:36;;;;;;;2.60;1.30;;;;;;;23.74;34.64;100719.72;4948545;28;20707;-66
2023/07/06 09:39:04;;;;;;;1.60;1.20;;;;;;;23.35;34.79;100719.22;4961224;28;20612;-65
2023/07/06 09:41:32;;;;;;;1.45;1.20;;;;;;;23.64;35.48;100720.97;4949906;28;20609;-66
2023/07/06 09:44:03;;;;;;;1.83;0.93;;;;;;;23.63;35.29;100716.50;4947193;29;20222;-66
2023/07/06 09:46:35;;;;;;;2.22;0.90;;;;;;;23.14;34.52;100716.31;4948585;28;20272;-67
2023/07/06 09:49:13;;;;;;;2.08;1.20;;;;;;;22.87;35.28;100710.94;4947607;29;20213;-66
2023/07/06 09:51:44;;;;;;;2.05;1.02;;;;;;;23.09;35.00;100710.16;4949199;28;20201;-66
2023/07/06 09:54:17;;;;;;;2.40;1.20;;;;;;;23.57;35.08;100704.06;4960406;23;20230;-67
2023/07/06 09:56:44;;;;;;;1.73;1.00;;;;;;;24.05;34.14;100704.13;4947965;28;20309;-66
2023/07/06 09:59:11;;;;;;;3.10;1.23;;;;;;;24.05;33.59;100705.97;4947836;28;20228;-65
2023/07/06 10:01:53;;;;;;;1.38;1.20;;;;;;;24.61;33.04;100705.63;4951216;28;20202;-66
2023/07/06 10:04:38;;;;;;;2.33;1.00;;;;;;;24.50;32.10;100697.94;4953264;28;20355;-65
2023/07/06 10:07:33;;;;;;;1.63;0.90;;;;;;;24.28;32.44;100703.28;4968998;28;20272;-64
2023/07/06 10:10:06;;;;;;;1.90;1.05;;;;;;;24.11;31.95;100712.97;4962388;28;20198;-65
2023/07/06 10:12:43;;;;;;;1.73;0.82;;;;;;;23.63;32.77;100711.97;4961420;28;20206;-64
2023/07/06 10:15:26;;;;;;;3.10;1.00;;;;;;;23.63;33.11;100709.28;4966380;28;20843;-65
2023/07/06 10:18:05;;;;;;;3.03;1.10;;;;;;;23.75;32.15;100708.84;4970276;28;20701;-64
2023/07/06 10:20:43;;;;;;;1.67;1.05;;;;;;;23.78;31.14;100705.13;4966519;28;20202;-64
2023/07/06 10:23:41;;;;;;;1.00;0.90;;;;;;;23.83;32.01;100713.06;4957292;28;20669;-66
2023/07/06 10:26:10;;;;;;;3.83;1.13;;;;;;;23.96;32.21;100709.84;4961046;28;20319;-67
2023/07/06 10:28:42;;;;;;;1.48;0.80;;;;;;;24.16;31.59;100701.03;4966500;28;20627;-66
2023/07/06 10:31:16;;;;;;;1.35;0.80;;;;;;;24.47;31.48;100700.78;4948731;28;20225;-67
2023/07/06 10:33:56;;;;;;;1.00;0.70;;;;;;;24.52;31.50;100704.19;4956471;28;20198;-65
2023/07/06 10:36:32;;;;;;;1.38;0.93;;;;;;;24.20;31.18;100704.50;4964406;28;20197;-66
2023/07/06 10:39:03;;;;;;;2.35;1.17;;;;;;;24.14;31.04;100712.84;4965017;28;20213;-67
2023/07/06 10:41:31;;;;;;;1.23;1.00;;;;;;;24.08;31.37;100702.25;4967895;28;20694;-66
2023/07/06 10:44:02;;;;;;;2.08;1.15;;;;;;;24.43;31.55;100704.53;4963197;28;20286;-64
2023/07/06 10:46:33;;;;;;;2.78;1.10;;;;;;;24.50;31.00;100700.66;4966855;28;20288;-65
2023/07/06 10:49:26;;;;;;;1.50;1.17;;;;;;;24.59;31.54;100707.53;4967823;28;20190;-66
2023/07/06 10:51:56;;;;;;;2.05;0.90;;;;;;;24.38;30.77;100710.09;4966748;28;20197;-66
2023/07/06 10:54:31;;;;;;;1.80;1.00;;;;;;;24.74;31.29;100709.63;4965406;28;20221;-66
2023/07/06 10:57:01;;;;;;;2.20;1.05;;;;;;;24.77;30.45;100698.66;4964868;28;20284;-67
2023/07/06 10:59:39;;;;;;;0.93;0.88;;;;;;;24.44;31.26;100695.47;4963487;28;20225;-68
2023/07/06 11:02:22;;;;;;;1.92;1.20;;;;;;;24.37;31.40;100697.50;4963990;28;20212;-66
2023/07/06 11:04:57;;;;;;;1.83;1.08;;;;;;;24.47;31.62;100697.19;4969834;28;20213;-67
2023/07/06 11:07:42;;;;;;;1.52;1.05;;;;;;;24.72;31.54;100705.22;4967199;28;20200;-67
2023/07/06 11:10:14;;;;;;;2.45;1.20;;;;;;;24.66;30.28;100704.50;4966991;28;20194;-67
2023/07/06 11:12:55;;;;;;;1.98;1.17;;;;;;;24.54;31.27;100698.72;4969788;28;20236;-67
2023/07/06 11:15:29;;;;;;;1.77;1.10;;;;;;;24.43;30.65;100700.97;4964815;28;20225;-66
2023/07/06 11:17:56;;;;;;;3.65;1.10;;;;;;;24.73;30.67;100696.13;4970331;28;20718;-67
2023/07/06 11:20:28;;;;;;;2.50;1.10;;;;;;;25.11;30.03;100698.19;4969693;28;20221;-67
2023/07/06 11:23:03;;;;;;;1.90;1.13;;;;;;;25.60;29.70;100696.97;4966746;28;20197;-68
2023/07/06 11:25:31;;;;;;;1.50;1.15;;;;;;;24.83;29.65;100695.72;4963889;28;20220;-67
2023/07/06 11:28:05;;;;;;;1.95;1.60;;;;;;;25.08;29.53;100698.34;4960699;28;20205;-67
2023/07/06 11:30:39;;;;;;;2.78;1.48;;;;;;;25.35;29.20;100701.72;4971173;28;20227;-67
2023/07/06 11:33:18;;;;;;;3.55;1.33;;;;;;;25.58;29.45;100700.72;4948088;28;20201;-69
2023/07/06 11:36:11;;;;;;;2.40;1.10;;;;;;;25.56;28.64;100694.47;4967967;28;20217;-67